American Canyon, California
Current Conditions -  °F | °C
As of 5:23 AM on Friday 24 Oct 2014 (Local Time) from KAPC Reporting Station
Haze Haze  
Wind Chill: 46°   Ceiling: Unl
Heat Index: 48°   Visibility: 1.5mi
Dew Point: 48°   Wind: 5mph
Humidity: 100%   Direction: 10°N
Pressure: 29.96"   Gusts: NA
Location:  38.17°N, 122.25°W
Report Text: KAPC 241223Z AUTO 01004KT 1 1/2SM BR CLR 09/09 A2996 RMK AO2 T00890089
Loading
Personal Weather Stations






























Interactive Weather Map
Tropical Storm Tracking
New forecast layout! Learn more

10-Day Weather Forecast

Advertisements
Track Severe Weather on mobile